sensor_id;sensor_type;location;lat;lon;timestamp;pressure;altitude;pressure_sealevel;temperature;humidity
18323;BME280;9287;49.456;11.064;2023-05-11T00:02:06;97906.44;;;12.66;100.00
18323;BME280;9287;49.456;11.064;2023-05-11T00:04:34;97901.75;;;12.67;100.00
18323;BME280;9287;49.456;11.064;2023-05-11T00:07:02;97907.22;;;12.67;100.00
18323;BME280;9287;49.456;11.064;2023-05-11T00:09:32;97900.00;;;12.55;100.00
18323;BME280;9287;49.456;11.064;2023-05-11T00:12:00;97900.44;;;12.57;100.00
18323;BME280;9287;49.456;11.064;2023-05-11T00:14:29;97896.19;;;12.60;100.00
18323;BME280;9287;49.456;11.064;2023-05-11T00:16:57;97896.91;;;12.57;100.00
18323;BME280;9287;49.456;11.064;2023-05-11T00:19:26;97896.97;;;12.60;100.00
18323;BME280;9287;49.456;11.064;2023-05-11T00:21:57;97893.81;;;12.58;100.00
18323;BME280;9287;49.456;11.064;2023-05-11T00:24:27;97898.47;;;12.58;100.00
18323;BME280;9287;49.456;11.064;2023-05-11T00:26:56;97891.38;;;12.53;100.00
18323;BME280;9287;49.456;11.064;2023-05-11T00:29:24;97896.91;;;12.57;100.00
18323;BME280;9287;49.456;11.064;2023-05-11T00:31:52;97896.19;;;12.60;100.00
18323;BME280;9287;49.456;11.064;2023-05-11T00:34:20;97888.25;;;12.54;100.00
18323;BME280;9287;49.456;11.064;2023-05-11T00:36:47;97885.53;;;12.54;100.00
18323;BME280;9287;49.456;11.064;2023-05-11T00:39:16;97893.00;;;12.58;100.00
18323;BME280;9287;49.456;11.064;2023-05-11T00:41:43;97889.84;;;12.55;100.00
18323;BME280;9287;49.456;11.064;2023-05-11T00:44:15;97875.19;;;12.44;100.00
18323;BME280;9287;49.456;11.064;2023-05-11T00:46:43;97883.41;;;12.44;100.00
18323;BME280;9287;49.456;11.064;2023-05-11T00:49:11;97879.97;;;12.51;100.00
18323;BME280;9287;49.456;11.064;2023-05-11T00:51:42;97884.66;;;12.50;100.00
18323;BME280;9287;49.456;11.064;2023-05-11T00:54:10;97884.25;;;12.48;100.00
18323;BME280;9287;49.456;11.064;2023-05-11T00:56:41;97881.09;;;12.46;100.00
18323;BME280;9287;49.456;11.064;2023-05-11T00:59:09;97885.00;;;12.45;100.00
18323;BME280;9287;49.456;11.064;2023-05-11T01:01:38;97878.31;;;12.43;100.00
18323;BME280;9287;49.456;11.064;2023-05-11T01:04:07;97886.16;;;12.44;100.00
18323;BME280;9287;49.456;11.064;2023-05-11T01:06:41;97895.03;;;12.38;100.00
18323;BME280;9287;49.456;11.064;2023-05-11T01:09:19;97884.16;;;12.41;100.00
18323;BME280;9287;49.456;11.064;2023-05-11T01:11:59;97883.28;;;12.37;100.00
18323;BME280;9287;49.456;11.064;2023-05-11T01:14:34;97876.22;;;12.36;100.00
18323;BME280;9287;49.456;11.064;2023-05-11T01:17:19;97884.88;;;12.38;100.00
18323;BME280;9287;49.456;11.064;2023-05-11T01:19:52;97882.94;;;12.39;100.00
18323;BME280;9287;49.456;11.064;2023-05-11T01:22:33;97879.25;;;12.31;100.00
18323;BME280;9287;49.456;11.064;2023-05-11T01:25:12;97878.09;;;12.32;100.00
18323;BME280;9287;49.456;11.064;2023-05-11T01:28:02;97887.19;;;12.36;100.00
18323;BME280;9287;49.456;11.064;2023-05-11T01:30:41;97883.59;;;12.32;100.00
18323;BME280;9287;49.456;11.064;2023-05-11T01:33:11;97878.97;;;12.36;100.00
18323;BME280;9287;49.456;11.064;2023-05-11T01:35:45;97876.28;;;12.40;100.00
18323;BME280;9287;49.456;11.064;2023-05-11T01:38:18;97884.00;;;12.34;100.00
18323;BME280;9287;49.456;11.064;2023-05-11T01:40:51;97888.22;;;12.28;100.00
18323;BME280;9287;49.456;11.064;2023-05-11T01:43:24;97881.59;;;12.29;100.00
18323;BME280;9287;49.456;11.064;2023-05-11T01:45:57;97884.63;;;12.24;100.00
18323;BME280;9287;49.456;11.064;2023-05-11T01:48:27;97884.22;;;12.22;100.00
18323;BME280;9287;49.456;11.064;2023-05-11T01:51:00;97888.22;;;12.28;100.00
18323;BME280;9287;49.456;11.064;2023-05-11T01:53:33;97887.81;;;12.26;100.00
18323;BME280;9287;49.456;11.064;2023-05-11T01:56:04;97887.81;;;12.26;100.00
18323;BME280;9287;49.456;11.064;2023-05-11T01:58:35;97891.75;;;12.29;100.00
18323;BME280;9287;49.456;11.064;2023-05-11T02:01:07;97880.41;;;12.30;100.00
18323;BME280;9287;49.456;11.064;2023-05-11T02:03:39;97884.63;;;12.24;100.00
18323;BME280;9287;49.456;11.064;2023-05-11T02:06:09;97881.75;;;12.17;100.00
18323;BME280;9287;49.456;11.064;2023-05-11T02:08:39;97882.91;;;12.16;100.00
18323;BME280;9287;49.456;11.064;2023-05-11T02:11:08;97893.81;;;12.12;100.00
18323;BME280;9287;49.456;11.064;2023-05-11T02:13:41;97889.13;;;12.13;100.00
18323;BME280;9287;49.456;11.064;2023-05-11T02:16:12;97884.41;;;12.10;100.00
18323;BME280;9287;49.456;11.064;2023-05-11T02:18:42;97889.09;;;12.09;100.00
18323;BME280;9287;49.456;11.064;2023-05-11T02:21:14;97884.97;;;12.00;100.00
18323;BME280;9287;49.456;11.064;2023-05-11T02:23:43;97881.16;;;12.04;100.00
18323;BME280;9287;49.456;11.064;2023-05-11T02:26:12;97881.53;;;12.03;100.00
18323;BME280;9287;49.456;11.064;2023-05-11T02:28:42;97885.84;;;12.04;100.00
18323;BME280;9287;49.456;11.064;2023-05-11T02:31:28;97885.13;;;12.07;100.00
18323;BME280;9287;49.456;11.064;2023-05-11T02:34:01;97884.25;;;12.03;100.00
18323;BME280;9287;49.456;11.064;2023-05-11T02:36:32;97878.66;;;11.96;100.00
18323;BME280;9287;49.456;11.064;2023-05-11T02:39:06;97880.22;;;11.97;100.00
18323;BME280;9287;49.456;11.064;2023-05-11T02:41:38;97883.34;;;11.95;100.00
18323;BME280;9287;49.456;11.064;2023-05-11T02:44:12;97878.66;;;11.96;100.00
18323;BME280;9287;49.456;11.064;2023-05-11T02:46:45;97876.94;;;11.88;100.00
18323;BME280;9287;49.456;11.064;2023-05-11T02:49:15;97878.66;;;11.96;100.00
18323;BME280;9287;49.456;11.064;2023-05-11T02:51:46;97877.09;;;11.95;100.00
18323;BME280;9287;49.456;11.064;2023-05-11T02:54:16;97884.13;;;11.96;100.00
18323;BME280;9287;49.456;11.064;2023-05-11T02:56:45;97884.13;;;11.96;100.00
18323;BME280;9287;49.456;11.064;2023-05-11T02:59:13;97881.78;;;11.94;100.00
18323;BME280;9287;49.456;11.064;2023-05-11T03:01:43;97881.72;;;11.91;100.00
18323;BME280;9287;49.456;11.064;2023-05-11T03:04:13;97880.97;;;11.94;100.00
18323;BME280;9287;49.456;11.064;2023-05-11T03:06:41;97873.78;;;11.85;100.00
18323;BME280;9287;49.456;11.064;2023-05-11T03:09:09;97871.41;;;11.84;100.00
18323;BME280;9287;49.456;11.064;2023-05-11T03:11:37;97875.72;;;11.85;100.00
18323;BME280;9287;49.456;11.064;2023-05-11T03:14:05;97876.59;;;11.89;100.00
18323;BME280;9287;49.456;11.064;2023-05-11T03:16:34;97873.06;;;11.89;100.00
18323;BME280;9287;49.456;11.064;2023-05-11T03:19:07;97880.13;;;11.90;100.00
18323;BME280;9287;49.456;11.064;2023-05-11T03:21:36;97883.16;;;11.84;100.00
18323;BME280;9287;49.456;11.064;2023-05-11T03:24:07;97883.22;;;11.88;100.00
18323;BME280;9287;49.456;11.064;2023-05-11T03:26:37;97875.81;;;11.89;100.00
18323;BME280;9287;49.456;11.064;2023-05-11T03:29:07;97881.56;;;11.83;100.00
18323;BME280;9287;49.456;11.064;2023-05-11T03:31:37;97877.25;;;11.82;100.00
18323;BME280;9287;49.456;11.064;2023-05-11T03:34:06;97877.25;;;11.82;100.00
18323;BME280;9287;49.456;11.064;2023-05-11T03:36:36;97876.81;;;11.80;100.00
18323;BME280;9287;49.456;11.064;2023-05-11T03:39:06;97875.22;;;11.79;100.00
18323;BME280;9287;49.456;11.064;2023-05-11T03:41:38;97872.84;;;11.78;100.00
18323;BME280;9287;49.456;11.064;2023-05-11T03:44:07;97869.34;;;11.77;100.00
18323;BME280;9287;49.456;11.064;2023-05-11T03:46:46;97875.22;;;11.79;100.00
18323;BME280;9287;49.456;11.064;2023-05-11T03:49:17;97874.38;;;11.75;100.00
18323;BME280;9287;49.456;11.064;2023-05-11T03:56:58;97870.75;;;11.71;100.00
18323;BME280;9287;49.456;11.064;2023-05-11T04:02:30;97866.88;;;11.72;100.00
18323;BME280;9287;49.456;11.064;2023-05-11T04:05:05;97866.44;;;11.70;100.00
18323;BME280;9287;49.456;11.064;2023-05-11T04:07:34;97862.56;;;11.71;100.00
18323;BME280;9287;49.456;11.064;2023-05-11T04:10:04;97863.28;;;11.68;100.00
18323;BME280;9287;49.456;11.064;2023-05-11T04:12:32;97862.84;;;11.66;100.00
18323;BME280;9287;49.456;11.064;2023-05-11T04:15:00;97865.56;;;11.66;100.00
18323;BME280;9287;49.456;11.064;2023-05-11T04:17:28;97854.72;;;11.70;100.00
18323;BME280;9287;49.456;11.064;2023-05-11T04:19:57;97867.09;;;11.64;100.00
18323;BME280;9287;49.456;11.064;2023-05-11T04:22:26;97861.69;;;11.67;100.00
18323;BME280;9287;49.456;11.064;2023-05-11T04:24:54;97866.28;;;11.63;100.00
18323;BME280;9287;49.456;11.064;2023-05-11T04:27:22;97863.88;;;11.58;100.00
18323;BME280;9287;49.456;11.064;2023-05-11T04:29:50;97867.44;;;11.62;100.00
18323;BME280;9287;49.456;11.064;2023-05-11T04:32:18;97872.91;;;11.62;100.00
18323;BME280;9287;49.456;11.064;2023-05-11T04:34:45;97866.28;;;11.63;100.00
18323;BME280;9287;49.456;11.064;2023-05-11T04:37:13;97869.47;;;11.65;100.00
18323;BME280;9287;49.456;11.064;2023-05-11T04:39:42;97872.91;;;11.62;100.00
18323;BME280;9287;49.456;11.064;2023-05-11T04:42:12;97874.94;;;11.65;100.00
18323;BME280;9287;49.456;11.064;2023-05-11T04:44:40;97874.94;;;11.65;100.00
18323;BME280;9287;49.456;11.064;2023-05-11T04:47:07;97873.72;;;11.63;100.00
18323;BME280;9287;49.456;11.064;2023-05-11T04:49:36;97874.16;;;11.65;100.00
18323;BME280;9287;49.456;11.064;2023-05-11T04:52:05;97868.03;;;11.71;100.00
18323;BME280;9287;49.456;11.064;2023-05-11T04:54:33;97868.47;;;11.73;100.00
18323;BME280;9287;49.456;11.064;2023-05-11T04:57:03;97870.84;;;11.75;100.00
18323;BME280;9287;49.456;11.064;2023-05-11T05:04:55;97872.69;;;11.71;100.00
18323;BME280;9287;49.456;11.064;2023-05-11T05:07:23;97866.88;;;11.72;100.00
18323;BME280;9287;49.456;11.064;2023-05-11T05:09:52;97864.94;;;11.73;100.00
18323;BME280;9287;49.456;11.064;2023-05-11T05:12:21;97872.34;;;11.72;100.00
18323;BME280;9287;49.456;11.064;2023-05-11T05:14:49;97876.16;;;11.68;100.00
18323;BME280;9287;49.456;11.064;2023-05-11T05:17:17;97875.81;;;11.69;100.00
18323;BME280;9287;49.456;11.064;2023-05-11T05:19:45;97873.34;;;11.64;100.00
18323;BME280;9287;49.456;11.064;2023-05-11T05:22:14;97879.69;;;11.68;100.00
18323;BME280;9287;49.456;11.064;2023-05-11T05:24:42;97879.53;;;11.80;100.00
18323;BME280;9287;49.456;11.064;2023-05-11T05:27:10;97878.97;;;11.71;100.00
18323;BME280;9287;49.456;11.064;2023-05-11T05:29:40;97877.13;;;11.56;100.00
18323;BME280;9287;49.456;11.064;2023-05-11T05:32:10;97885.16;;;11.68;100.00
18323;BME280;9287;49.456;11.064;2023-05-11T05:34:39;97880.41;;;11.65;100.00
18323;BME280;9287;49.456;11.064;2023-05-11T05:37:07;97889.03;;;11.67;100.00
18323;BME280;9287;49.456;11.064;2023-05-11T05:39:34;97894.50;;;11.67;100.00
18323;BME280;9287;49.456;11.064;2023-05-11T05:42:02;97889.66;;;11.76;100.00
18323;BME280;9287;49.456;11.064;2023-05-11T05:44:31;97890.19;;;11.66;100.00
18323;BME280;9287;49.456;11.064;2023-05-11T05:47:00;97895.22;;;11.64;100.00
18323;BME280;9287;49.456;11.064;2023-05-11T05:49:28;97896.81;;;11.65;100.00
18323;BME280;9287;49.456;11.064;2023-05-11T05:51:56;97896.81;;;11.65;100.00
18323;BME280;9287;49.456;11.064;2023-05-11T05:54:24;97905.31;;;11.60;100.00
18323;BME280;9287;49.456;11.064;2023-05-11T05:56:52;97894.78;;;11.62;100.00
18323;BME280;9287;49.456;11.064;2023-05-11T05:59:20;97903.75;;;11.59;100.00
18323;BME280;9287;49.456;11.064;2023-05-11T06:01:50;97898.28;;;11.59;100.00
18323;BME280;9287;49.456;11.064;2023-05-11T06:04:20;97907.03;;;11.68;100.00
18323;BME280;9287;49.456;11.064;2023-05-11T06:06:48;97898.97;;;11.75;100.00
18323;BME280;9287;49.456;11.064;2023-05-11T06:09:15;97899.25;;;11.70;100.00
18323;BME280;9287;49.456;11.064;2023-05-11T06:11:43;97898.41;;;11.66;100.00
18323;BME280;9287;49.456;11.064;2023-05-11T06:14:12;97907.47;;;11.51;100.00
18323;BME280;9287;49.456;11.064;2023-05-11T06:16:40;97908.06;;;11.41;100.00
18323;BME280;9287;49.456;11.064;2023-05-11T06:19:08;97905.03;;;11.46;100.00
18323;BME280;9287;49.456;11.064;2023-05-11T06:21:37;97905.88;;;11.50;100.00
18323;BME280;9287;49.456;11.064;2023-05-11T06:24:07;97909.84;;;11.52;100.00
18323;BME280;9287;49.456;11.064;2023-05-11T06:26:35;97905.59;;;11.55;100.00
18323;BME280;9287;49.456;11.064;2023-05-11T06:29:03;97903.75;;;11.59;100.00
18323;BME280;9287;49.456;11.064;2023-05-11T06:31:31;97907.75;;;11.65;100.00
18323;BME280;9287;49.456;11.064;2023-05-11T06:33:59;97907.03;;;11.68;100.00
18323;BME280;9287;49.456;11.064;2023-05-11T06:36:26;97907.19;;;11.75;100.00
18323;BME280;9287;49.456;11.064;2023-05-11T06:38:55;97906.91;;;11.80;100.00
18323;BME280;9287;49.456;11.064;2023-05-11T06:41:23;97905.09;;;11.88;100.00
18323;BME280;9287;49.456;11.064;2023-05-11T06:43:51;97901.72;;;11.95;100.00
18323;BME280;9287;49.456;11.064;2023-05-11T06:46:19;97904.31;;;11.88;100.00
18323;BME280;9287;49.456;11.064;2023-05-11T06:48:47;97909.00;;;11.87;100.00
18323;BME280;9287;49.456;11.064;2023-05-11T06:51:16;97899.56;;;11.84;100.00
18323;BME280;9287;49.456;11.064;2023-05-11T06:53:43;97900.34;;;11.85;100.00
18323;BME280;9287;49.456;11.064;2023-05-11T06:56:13;97897.97;;;11.83;100.00
18323;BME280;9287;49.456;11.064;2023-05-11T06:58:42;97898.69;;;11.80;100.00
18323;BME280;9287;49.456;11.064;2023-05-11T07:01:10;97902.44;;;11.72;100.00
18323;BME280;9287;49.456;11.064;2023-05-11T07:03:38;97908.06;;;11.79;100.00
18323;BME280;9287;49.456;11.064;2023-05-11T07:06:06;97905.19;;;11.92;100.00
18323;BME280;9287;49.456;11.064;2023-05-11T07:08:34;97905.59;;;11.94;100.00
18323;BME280;9287;49.456;11.064;2023-05-11T07:11:02;97913.94;;;12.01;100.00
18323;BME280;9287;49.456;11.064;2023-05-11T07:13:31;97902.25;;;12.04;100.00
18323;BME280;9287;49.456;11.064;2023-05-11T07:15:59;97908.47;;;12.01;100.00
18323;BME280;9287;49.456;11.064;2023-05-11T07:18:27;97917.25;;;12.10;100.00
18323;BME280;9287;49.456;11.064;2023-05-11T07:20:56;97917.25;;;12.10;100.00
18323;BME280;9287;49.456;11.064;2023-05-11T07:23:24;97914.50;;;12.10;100.00
18323;BME280;9287;49.456;11.064;2023-05-11T07:25:51;97907.88;;;12.11;100.00
18323;BME280;9287;49.456;11.064;2023-05-11T07:28:23;97910.19;;;12.09;100.00
18323;BME280;9287;49.456;11.064;2023-05-11T07:30:52;97913.28;;;12.07;100.00
18323;BME280;9287;49.456;11.064;2023-05-11T07:33:20;97912.50;;;12.07;100.00
18323;BME280;9287;49.456;11.064;2023-05-11T07:35:47;97912.34;;;12.00;100.00
18323;BME280;9287;49.456;11.064;2023-05-11T07:38:15;97914.00;;;12.04;100.00
18323;BME280;9287;49.456;11.064;2023-05-11T07:40:43;97907.81;;;12.07;100.00
18323;BME280;9287;49.456;11.064;2023-05-11T07:43:11;97917.28;;;12.13;100.00
18323;BME280;9287;49.456;11.064;2023-05-11T07:45:39;97911.78;;;12.10;100.00
18323;BME280;9287;49.456;11.064;2023-05-11T07:48:08;97919.13;;;12.06;100.00
18323;BME280;9287;49.456;11.064;2023-05-11T07:50:36;97922.81;;;12.17;100.00
18323;BME280;9287;49.456;11.064;2023-05-11T07:53:04;97911.81;;;12.13;100.00
18323;BME280;9287;49.456;11.064;2023-05-11T07:55:32;97917.25;;;12.10;100.00
18323;BME280;9287;49.456;11.064;2023-05-11T07:57:59;97914.00;;;12.04;100.00
18323;BME280;9287;49.456;11.064;2023-05-11T08:00:27;97905.28;;;11.99;100.00
18323;BME280;9287;49.456;11.064;2023-05-11T08:02:55;97920.91;;;11.98;100.00
18323;BME280;9287;49.456;11.064;2023-05-11T08:05:24;97917.03;;;11.99;100.00
18323;BME280;9287;49.456;11.064;2023-05-11T08:07:52;97918.50;;;11.93;100.00
18323;BME280;9287;49.456;11.064;2023-05-11T08:10:20;97913.75;;;11.90;100.00
18323;BME280;9287;49.456;11.064;2023-05-11T08:12:48;97920.88;;;11.95;100.00
18323;BME280;9287;49.456;11.064;2023-05-11T08:15:16;97917.09;;;12.03;100.00
18323;BME280;9287;49.456;11.064;2023-05-11T08:17:44;97920.28;;;12.05;100.00
18323;BME280;9287;49.456;11.064;2023-05-11T08:20:12;97911.78;;;12.10;100.00
18323;BME280;9287;49.456;11.064;2023-05-11T08:22:43;97921.25;;;12.16;100.00
18323;BME280;9287;49.456;11.064;2023-05-11T08:25:10;97916.63;;;12.20;100.00
18323;BME280;9287;49.456;11.064;2023-05-11T08:27:39;97916.09;;;12.11;100.00
18323;BME280;9287;49.456;11.064;2023-05-11T08:30:07;97918.81;;;12.11;100.00
18323;BME280;9287;49.456;11.064;2023-05-11T08:32:37;97919.13;;;12.06;100.00
18323;BME280;9287;49.456;11.064;2023-05-11T08:35:09;97917.25;;;12.10;100.00
18323;BME280;9287;49.456;11.064;2023-05-11T08:37:37;97920.53;;;12.19;100.00
18323;BME280;9287;49.456;11.064;2023-05-11T08:40:09;97914.19;;;12.15;100.00
18323;BME280;9287;49.456;11.064;2023-05-11T08:42:43;97912.59;;;12.14;100.00
18323;BME280;9287;49.456;11.064;2023-05-11T08:45:13;97917.34;;;12.17;100.00
18323;BME280;9287;49.456;11.064;2023-05-11T08:47:42;97913.88;;;12.20;100.00
18323;BME280;9287;49.456;11.064;2023-05-11T08:50:11;97919.06;;;12.25;100.00
18323;BME280;9287;49.456;11.064;2023-05-11T08:52:39;97912.13;;;12.31;100.00
18323;BME280;9287;49.456;11.064;2023-05-11T08:55:09;97908.56;;;12.27;100.00
18323;BME280;9287;49.456;11.064;2023-05-11T08:57:39;97913.78;;;12.36;100.00
18323;BME280;9287;49.456;11.064;2023-05-11T09:00:08;97909.94;;;12.40;100.00
18323;BME280;9287;49.456;11.064;2023-05-11T09:02:37;97916.16;;;12.37;100.00
18323;BME280;9287;49.456;11.064;2023-05-11T09:05:05;97914.56;;;12.36;100.00
18323;BME280;9287;49.456;11.064;2023-05-11T09:07:35;97923.94;;;12.35;100.00
18323;BME280;9287;49.456;11.064;2023-05-11T09:10:06;97913.69;;;12.32;100.00
18323;BME280;9287;49.456;11.064;2023-05-11T09:12:39;97911.59;;;12.45;100.00
18323;BME280;9287;49.456;11.064;2023-05-11T09:15:07;97912.75;;;12.44;100.00
18323;BME280;9287;49.456;11.064;2023-05-11T09:17:35;97916.16;;;12.37;100.00
18323;BME280;9287;49.456;11.064;2023-05-11T09:20:05;97912.97;;;12.35;100.00
18323;BME280;9287;49.456;11.064;2023-05-11T09:22:41;97909.94;;;12.40;100.00
18323;BME280;9287;49.456;11.064;2023-05-11T09:25:10;97911.41;;;12.34;100.00
18323;BME280;9287;49.456;11.064;2023-05-11T09:27:44;97910.97;;;12.32;100.00
18323;BME280;9287;49.456;11.064;2023-05-11T09:30:14;97916.88;;;12.34;100.00
18323;BME280;9287;49.456;11.064;2023-05-11T09:32:47;97921.31;;;12.42;100.00
18323;BME280;9287;49.456;11.064;2023-05-11T09:35:24;97914.69;;;12.43;100.00
18323;BME280;9287;49.456;11.064;2023-05-11T09:37:57;97913.03;;;12.62;100.00
18323;BME280;9287;49.456;11.064;2023-05-11T09:40:25;97911.97;;;12.70;100.00
18323;BME280;9287;49.456;11.064;2023-05-11T09:43:00;97911.66;;;12.75;100.00
18323;BME280;9287;49.456;11.064;2023-05-11T09:45:36;97910.22;;;12.81;100.00
18323;BME280;9287;49.456;11.064;2023-05-11T09:48:05;97906.75;;;12.87;100.00
18323;BME280;9287;49.456;11.064;2023-05-11T09:50:34;97911.75;;;12.82;100.00
18323;BME280;9287;49.456;11.064;2023-05-11T09:53:02;97905.75;;;12.73;100.00
18323;BME280;9287;49.456;11.064;2023-05-11T09:55:30;97905.03;;;12.76;100.00
18323;BME280;9287;49.456;11.064;2023-05-11T09:58:00;97905.03;;;12.76;100.00
18323;BME280;9287;49.456;11.064;2023-05-11T10:00:27;97905.75;;;12.73;100.00
18323;BME280;9287;49.456;11.064;2023-05-11T10:03:00;97908.09;;;12.71;100.00
18323;BME280;9287;49.456;11.064;2023-05-11T10:05:30;97906.06;;;12.68;100.00
18323;BME280;9287;49.456;11.064;2023-05-11T10:08:00;97906.50;;;12.70;100.00
18323;BME280;9287;49.456;11.064;2023-05-11T10:10:33;97904.06;;;12.65;100.00
18323;BME280;9287;49.456;11.064;2023-05-11T10:13:03;97907.13;;;12.60;100.00
18323;BME280;9287;49.456;11.064;2023-05-11T10:15:31;97903.97;;;12.58;100.00
18323;BME280;9287;49.456;11.064;2023-05-11T10:18:02;97902.09;;;12.62;100.00
18323;BME280;9287;49.456;11.064;2023-05-11T10:20:30;97895.53;;;12.70;100.00
18323;BME280;9287;49.456;11.064;2023-05-11T10:22:59;97894.94;;;12.80;100.00
18323;BME280;9287;49.456;11.064;2023-05-11T10:25:27;97893.44;;;12.86;100.00
18323;BME280;9287;49.456;11.064;2023-05-11T10:27:56;97887.88;;;12.79;100.00
18323;BME280;9287;49.456;11.064;2023-05-11T10:30:25;97885.75;;;12.69;100.00
18323;BME280;9287;49.456;11.064;2023-05-11T10:32:54;97884.50;;;12.63;100.00
18323;BME280;9287;49.456;11.064;2023-05-11T10:35:22;97887.63;;;12.65;100.00
18323;BME280;9287;49.456;11.064;2023-05-11T10:37:51;97887.63;;;12.65;100.00
18323;BME280;9287;49.456;11.064;2023-05-11T10:40:19;97882.16;;;12.65;100.00
18323;BME280;9287;49.456;11.064;2023-05-11T10:43:17;97876.06;;;12.75;100.00
18323;BME280;9287;49.456;11.064;2023-05-11T10:45:56;97877.69;;;12.79;100.00
18323;BME280;9287;49.456;11.064;2023-05-11T10:48:51;97871.84;;;12.81;100.00
18323;BME280;9287;49.456;11.064;2023-05-11T10:51:40;97877.31;;;12.81;100.00
18323;BME280;9287;49.456;11.064;2023-05-11T10:54:31;97868.47;;;12.91;100.00
18323;BME280;9287;49.456;11.064;2023-05-11T10:57:10;97873.03;;;12.83;100.00
18323;BME280;9287;49.456;11.064;2023-05-11T11:03:08;97873.00;;;12.80;100.00
18323;BME280;9287;49.456;11.064;2023-05-11T11:05:36;97873.78;;;12.80;100.00
18323;BME280;9287;49.456;11.064;2023-05-11T11:08:06;97869.09;;;12.81;100.00
18323;BME280;9287;49.456;11.064;2023-05-11T11:10:36;97875.56;;;12.69;100.00
18323;BME280;9287;49.456;11.064;2023-05-11T11:13:06;97874.34;;;12.67;100.00
18323;BME280;9287;49.456;11.064;2023-05-11T11:16:09;97878.38;;;12.73;100.00
18323;BME280;9287;49.456;11.064;2023-05-11T11:18:43;97869.78;;;12.74;100.00
18323;BME280;9287;49.456;11.064;2023-05-11T11:21:10;97866.91;;;12.64;100.00
18323;BME280;9287;49.456;11.064;2023-05-11T11:23:45;97866.41;;;12.58;100.00
18323;BME280;9287;49.456;11.064;2023-05-11T11:26:17;97871.16;;;12.61;100.00
18323;BME280;9287;49.456;11.064;2023-05-11T11:29:10;97869.63;;;12.64;100.00
18323;BME280;9287;49.456;11.064;2023-05-11T11:31:40;97870.66;;;12.82;100.00
18323;BME280;9287;49.456;11.064;2023-05-11T11:34:32;97870.94;;;12.73;100.00
18323;BME280;9287;49.456;11.064;2023-05-11T11:37:02;97875.13;;;12.64;100.00
18323;BME280;9287;49.456;11.064;2023-05-11T11:39:48;97870.66;;;12.55;100.00
18323;BME280;9287;49.456;11.064;2023-05-11T11:42:18;97878.03;;;12.51;100.00
18323;BME280;9287;49.456;11.064;2023-05-11T11:44:49;97876.81;;;12.49;100.00
18323;BME280;9287;49.456;11.064;2023-05-11T11:47:18;97877.19;;;12.47;100.00
18323;BME280;9287;49.456;11.064;2023-05-11T11:49:49;97880.69;;;12.44;100.00
18323;BME280;9287;49.456;11.064;2023-05-11T11:52:32;97881.09;;;12.46;100.00
18323;BME280;9287;49.456;11.064;2023-05-11T11:55:02;97879.81;;;12.40;100.00
18323;BME280;9287;49.456;11.064;2023-05-11T11:57:42;97878.66;;;12.41;100.00
18323;BME280;9287;49.456;11.064;2023-05-11T12:00:19;97883.00;;;12.42;100.00
18323;BME280;9287;49.456;11.064;2023-05-11T12:02:48;97881.47;;;12.45;100.00
18323;BME280;9287;49.456;11.064;2023-05-11T12:05:18;97880.03;;;12.54;100.00
18323;BME280;9287;49.456;11.064;2023-05-11T12:07:50;97877.09;;;12.67;100.00
18323;BME280;9287;49.456;11.064;2023-05-11T12:10:20;97893.78;;;12.81;100.00
18323;BME280;9287;49.456;11.064;2023-05-11T12:12:49;97880.84;;;12.81;100.00
18323;BME280;9287;49.456;11.064;2023-05-11T12:15:24;97879.31;;;12.84;100.00
18323;BME280;9287;49.456;11.064;2023-05-11T12:17:54;97879.84;;;12.67;100.00
18323;BME280;9287;49.456;11.064;2023-05-11T12:20:23;97875.88;;;12.64;100.00
18323;BME280;9287;49.456;11.064;2023-05-11T12:22:51;97881.75;;;12.63;100.00
18323;BME280;9287;49.456;11.064;2023-05-11T12:25:19;97882.13;;;12.61;100.00
18323;BME280;9287;49.456;11.064;2023-05-11T12:27:51;97879.97;;;12.51;100.00
18323;BME280;9287;49.456;11.064;2023-05-11T12:30:22;97883.94;;;12.53;100.00
18323;BME280;9287;49.456;11.064;2023-05-11T12:32:50;97884.22;;;12.45;100.00
18323;BME280;9287;49.456;11.064;2023-05-11T12:35:23;97889.00;;;12.51;100.00
18323;BME280;9287;49.456;11.064;2023-05-11T12:37:52;97892.94;;;12.54;100.00
18323;BME280;9287;49.456;11.064;2023-05-11T12:40:21;97887.31;;;12.43;100.00
18323;BME280;9287;49.456;11.064;2023-05-11T12:42:50;97890.34;;;12.38;100.00
18323;BME280;9287;49.456;11.064;2023-05-11T12:45:18;97895.69;;;12.31;100.00
18323;BME280;9287;49.456;11.064;2023-05-11T12:47:47;97894.88;;;12.27;100.00
18323;BME280;9287;49.456;11.064;2023-05-11T12:50:17;97900.44;;;12.34;100.00
18323;BME280;9287;49.456;11.064;2023-05-11T12:52:46;97892.56;;;12.29;100.00
18323;BME280;9287;49.456;11.064;2023-05-11T12:55:25;97894.09;;;12.30;100.00
18323;BME280;9287;49.456;11.064;2023-05-11T12:58:06;97894.97;;;12.34;100.00
18323;BME280;9287;49.456;11.064;2023-05-11T13:00:34;97887.47;;;12.31;100.00
18323;BME280;9287;49.456;11.064;2023-05-11T13:03:02;97886.31;;;12.32;100.00
18323;BME280;9287;49.456;11.064;2023-05-11T13:05:30;97880.56;;;12.37;100.00
18323;BME280;9287;49.456;11.064;2023-05-11T13:08:01;97873.91;;;12.38;100.00
18323;BME280;9287;49.456;11.064;2023-05-11T13:10:29;97879.63;;;12.52;100.00
18323;BME280;9287;49.456;11.064;2023-05-11T13:12:57;97876.56;;;12.58;100.00
18323;BME280;9287;49.456;11.064;2023-05-11T13:15:25;97878.03;;;12.51;100.00
18323;BME280;9287;49.456;11.064;2023-05-11T13:17:55;97873.19;;;12.41;100.00
18323;BME280;9287;49.456;11.064;2023-05-11T13:20:25;97875.72;;;12.53;100.00
18323;BME280;9287;49.456;11.064;2023-05-11T13:23:06;97872.88;;;12.73;100.00
18323;BME280;9287;49.456;11.064;2023-05-11T13:25:51;97875.47;;;12.88;100.00